Terminal Aerodrome Forecast
Issued by NWS Chicago, IL

Home | Current Version | Previous Version | Text Only | Print | Product List | Glossary Off
Versions: 1 2 3 4 5 6 7 8 9 10 11 12 13 14 15 16 17 18 19 20 21 22 23 24 25 26 27

000
FTUS43 KLOT 142131 AAA
TAFRFD
TAF AMD
KRFD 142131Z 1422/1518 18012KT P6SM -SN OVC050
     FM142300 18012G18KT 5SM -SN OVC030
     FM150100 16014G20KT 1 1/2SM -SN BKN015 OVC025
     FM150500 17012G18KT 1 1/2SM -SN SCT009 OVC012
     FM151500 24007KT 4SM -SN OVC010=

USA.gov is the U.S. government's official web portal to all federal, state and local government web resources and services.